createdAt,value
2019-03-17T00:04:54.340Z,975.17
2019-03-17T00:09:54.271Z,975.19
2019-03-17T00:15:04.713Z,975.30
2019-03-17T00:19:54.332Z,975.30
2019-03-17T00:24:54.317Z,975.27
2019-03-17T00:29:54.321Z,975.24
2019-03-17T00:34:54.356Z,975.20
2019-03-17T00:39:54.273Z,975.17
2019-03-17T00:44:54.374Z,975.12
2019-03-17T00:49:54.324Z,974.94
2019-03-17T00:54:54.289Z,975.00
2019-03-17T00:59:54.283Z,974.99
2019-03-17T01:04:56.519Z,975.04
2019-03-17T01:09:54.305Z,974.98
2019-03-17T01:14:54.288Z,974.85
2019-03-17T01:19:54.332Z,974.80
2019-03-17T01:24:54.263Z,974.68
2019-03-17T01:29:54.333Z,974.60
2019-03-17T01:34:54.325Z,974.57
2019-03-17T01:39:54.291Z,974.62
2019-03-17T01:44:54.302Z,974.54
2019-03-17T01:49:54.288Z,974.47
2019-03-17T01:54:54.281Z,974.41
2019-03-17T01:59:54.295Z,974.44
2019-03-17T02:04:54.336Z,974.30
2019-03-17T02:09:54.280Z,974.34
2019-03-17T02:14:54.310Z,974.30
2019-03-17T02:19:54.318Z,974.33
2019-03-17T02:24:54.299Z,974.39
2019-03-17T02:29:54.317Z,974.44
2019-03-17T02:34:54.358Z,974.29
2019-03-17T02:39:54.294Z,974.32
2019-03-17T02:44:54.365Z,974.37
2019-03-17T02:49:54.331Z,974.28
2019-03-17T02:54:54.274Z,974.34
2019-03-17T02:59:54.275Z,974.33
2019-03-17T03:04:54.334Z,974.34
2019-03-17T03:09:54.295Z,974.32
2019-03-17T03:14:54.323Z,974.34
2019-03-17T03:19:54.316Z,974.40
2019-03-17T03:24:54.272Z,974.47
2019-03-17T03:29:54.299Z,974.48
2019-03-17T03:34:54.324Z,974.45
2019-03-17T03:39:54.396Z,974.47
2019-03-17T03:44:54.328Z,974.47
2019-03-17T03:49:57.169Z,974.39
2019-03-17T03:54:54.301Z,974.47
2019-03-17T03:59:54.293Z,974.47
2019-03-17T04:04:54.312Z,974.41
2019-03-17T04:09:54.278Z,974.37
2019-03-17T04:14:54.306Z,974.34
2019-03-17T04:19:54.298Z,974.35
2019-03-17T04:24:54.266Z,974.28
2019-03-17T04:29:54.273Z,974.20
2019-03-17T04:34:54.313Z,974.29
2019-03-17T04:39:54.269Z,974.26
2019-03-17T04:44:54.276Z,974.20
2019-03-17T04:49:54.309Z,974.22
2019-03-17T04:54:54.237Z,974.17
2019-03-17T04:59:54.292Z,974.28
2019-03-17T05:04:54.297Z,974.26
2019-03-17T05:09:54.247Z,974.28
2019-03-17T05:14:54.270Z,974.13
2019-03-17T05:19:54.304Z,974.13
2019-03-17T05:24:54.235Z,974.10
2019-03-17T05:29:54.279Z,974.13
2019-03-17T05:34:54.284Z,974.15
2019-03-17T05:39:54.231Z,974.19
2019-03-17T05:44:54.254Z,974.28
2019-03-17T05:49:54.337Z,974.20
2019-03-17T05:54:54.229Z,974.25
2019-03-17T05:59:54.248Z,974.24
2019-03-17T06:04:54.289Z,974.19
2019-03-17T06:09:54.242Z,974.14
2019-03-17T06:14:54.240Z,974.15
2019-03-17T06:19:54.319Z,974.20
2019-03-17T06:24:54.235Z,974.10
2019-03-17T06:29:54.239Z,974.06
2019-03-17T06:34:54.407Z,974.18
2019-03-17T06:39:54.219Z,974.19
2019-03-17T06:44:54.242Z,974.30
2019-03-17T06:49:54.281Z,974.24
2019-03-17T06:54:54.223Z,974.26
2019-03-17T06:59:54.248Z,974.11
2019-03-17T07:04:54.320Z,974.07
2019-03-17T07:09:54.235Z,974.04
2019-03-17T07:14:54.241Z,974.04
2019-03-17T07:19:54.256Z,974.01
2019-03-17T07:24:54.237Z,974.05
2019-03-17T07:29:54.256Z,974.01
2019-03-17T07:34:54.263Z,974.02
2019-03-17T07:39:54.238Z,973.90
2019-03-17T07:44:54.266Z,973.81
2019-03-17T07:49:54.309Z,973.75
2019-03-17T07:54:54.238Z,973.86
2019-03-17T07:59:54.225Z,973.80
2019-03-17T08:04:54.255Z,973.76
2019-03-17T08:09:54.234Z,973.82
2019-03-17T08:14:54.265Z,973.68
2019-03-17T08:19:54.261Z,973.73
2019-03-17T08:24:54.226Z,973.67
2019-03-17T08:29:54.235Z,973.65
2019-03-17T08:34:54.265Z,973.66
2019-03-17T08:39:54.221Z,973.65
2019-03-17T08:44:54.244Z,973.56
2019-03-17T08:49:54.311Z,973.61
2019-03-17T08:54:54.217Z,973.51
2019-03-17T08:59:54.256Z,973.50
2019-03-17T09:04:54.317Z,973.42
2019-03-17T09:09:54.220Z,973.34
2019-03-17T09:14:54.242Z,973.34
2019-03-17T09:19:54.263Z,973.30
2019-03-17T09:24:54.205Z,973.20
2019-03-17T09:29:54.238Z,973.14
2019-03-17T09:34:54.273Z,973.20
2019-03-17T09:39:54.228Z,973.12
2019-03-17T09:44:54.256Z,973.11
2019-03-17T09:49:54.283Z,973.12
2019-03-17T09:54:54.246Z,972.95
2019-03-17T09:59:54.262Z,973.07
2019-03-17T10:04:54.239Z,973.24
2019-03-17T10:09:54.227Z,973.17
2019-03-17T10:14:54.225Z,973.24
2019-03-17T10:19:54.319Z,973.22
2019-03-17T10:24:54.229Z,973.17
2019-03-17T10:29:54.241Z,973.09
2019-03-17T10:34:54.269Z,972.88
2019-03-17T10:39:54.247Z,972.77
2019-03-17T10:44:54.231Z,972.75
2019-03-17T10:49:54.273Z,972.70
2019-03-17T10:54:54.250Z,972.57
2019-03-17T10:59:54.267Z,972.66
2019-03-17T11:04:54.301Z,972.62
2019-03-17T11:09:54.255Z,972.79
2019-03-17T11:14:54.242Z,972.64
2019-03-17T11:19:54.274Z,972.60
2019-03-17T11:24:54.248Z,972.45
2019-03-17T11:29:54.266Z,972.25
2019-03-17T11:34:54.286Z,972.28
2019-03-17T11:39:54.270Z,972.24
2019-03-17T11:44:54.266Z,972.13
2019-03-17T11:49:54.345Z,972.05
2019-03-17T11:54:54.270Z,971.91
2019-03-17T11:59:54.297Z,971.63
2019-03-17T12:04:54.323Z,971.63
2019-03-17T12:09:54.284Z,971.38
2019-03-17T12:14:54.283Z,971.46
2019-03-17T12:19:54.374Z,971.27
2019-03-17T12:24:54.271Z,971.17
2019-03-17T12:29:54.308Z,971.08
2019-03-17T12:34:54.300Z,970.94
2019-03-17T12:40:02.499Z,970.81
2019-03-17T12:44:54.318Z,970.75
2019-03-17T12:49:54.325Z,970.66
2019-03-17T12:54:54.303Z,970.52
2019-03-17T12:59:54.319Z,970.42
2019-03-17T13:04:54.335Z,970.28
2019-03-17T13:09:54.299Z,970.16
2019-03-17T13:14:54.302Z,970.15
2019-03-17T13:19:54.335Z,970.17
2019-03-17T13:24:54.310Z,970.09
2019-03-17T13:29:54.296Z,969.95
2019-03-17T13:34:54.398Z,969.90
2019-03-17T13:39:54.300Z,969.82
2019-03-17T13:44:54.321Z,969.81
2019-03-17T13:49:54.413Z,969.73
2019-03-17T13:54:54.314Z,969.61
2019-03-17T13:59:54.308Z,969.60
2019-03-17T14:04:54.362Z,969.38
2019-03-17T14:09:54.335Z,969.31
2019-03-17T14:14:54.336Z,969.31
2019-03-17T14:19:54.365Z,969.14
2019-03-17T14:24:54.308Z,968.99
2019-03-17T14:29:54.327Z,968.99
2019-03-17T14:34:54.373Z,968.99
2019-03-17T14:39:54.333Z,968.98
2019-03-17T14:44:54.343Z,968.97
2019-03-17T14:49:54.447Z,968.88
2019-03-17T14:54:54.347Z,968.83
2019-03-17T14:59:54.326Z,968.83
2019-03-17T15:04:54.379Z,968.74
2019-03-17T15:09:54.371Z,968.70
2019-03-17T15:14:54.360Z,968.78
2019-03-17T15:19:54.387Z,968.66
2019-03-17T15:24:54.342Z,968.62
2019-03-17T15:29:54.341Z,968.52
2019-03-17T15:34:54.387Z,968.50
2019-03-17T15:39:54.359Z,968.51
2019-03-17T15:44:54.360Z,968.31
2019-03-17T15:49:54.395Z,968.44
2019-03-17T15:54:54.379Z,968.36
2019-03-17T15:59:54.365Z,968.33
2019-03-17T16:04:54.383Z,968.29
2019-03-17T16:09:54.362Z,968.32
2019-03-17T16:14:54.370Z,968.32
2019-03-17T16:19:54.399Z,968.40
2019-03-17T16:24:54.362Z,968.43
2019-03-17T16:29:54.372Z,968.36
2019-03-17T16:34:54.399Z,968.45
2019-03-17T16:39:54.369Z,968.40
2019-03-17T16:44:54.384Z,968.27
2019-03-17T16:49:54.401Z,968.43
2019-03-17T16:54:54.374Z,968.29
2019-03-17T16:59:54.372Z,968.34
2019-03-17T17:04:54.463Z,968.29
2019-03-17T17:09:54.368Z,968.35
2019-03-17T17:14:54.409Z,968.21
2019-03-17T17:19:54.465Z,968.21
2019-03-17T17:24:54.386Z,968.23
2019-03-17T17:29:54.389Z,968.20
2019-03-17T17:34:54.404Z,968.24
2019-03-17T17:39:54.376Z,968.25
2019-03-17T17:44:54.387Z,968.18
2019-03-17T17:49:54.472Z,968.29
2019-03-17T17:54:54.367Z,968.11
2019-03-17T17:59:54.363Z,968.05
2019-03-17T18:04:54.453Z,967.99
2019-03-17T18:09:54.396Z,968.18
2019-03-17T18:14:54.401Z,968.11
2019-03-17T18:19:54.441Z,968.06
2019-03-17T18:24:55.698Z,967.92
2019-03-17T18:29:54.381Z,967.95
2019-03-17T18:34:54.474Z,968.04
2019-03-17T18:39:54.380Z,968.08
2019-03-17T18:44:54.383Z,968.13
2019-03-17T18:49:54.419Z,968.26
2019-03-17T18:54:54.391Z,968.43
2019-03-17T18:59:54.404Z,968.39
2019-03-17T19:04:54.426Z,968.39
2019-03-17T19:09:54.384Z,968.61
2019-03-17T19:14:54.366Z,968.49
2019-03-17T19:19:54.409Z,968.57
2019-03-17T19:24:54.390Z,968.64
2019-03-17T19:29:54.399Z,968.71
2019-03-17T19:34:54.479Z,968.73
2019-03-17T19:39:54.394Z,968.93
2019-03-17T19:44:54.400Z,968.95
2019-03-17T19:49:54.411Z,969.00
2019-03-17T19:54:54.383Z,969.05
2019-03-17T19:59:54.401Z,968.63
2019-03-17T20:04:54.433Z,968.60
2019-03-17T20:09:54.389Z,968.92
2019-03-17T20:14:54.393Z,968.84
2019-03-17T20:19:54.427Z,969.01
2019-03-17T20:24:54.366Z,968.99
2019-03-17T20:29:54.389Z,968.94
2019-03-17T20:34:54.442Z,969.03
2019-03-17T20:39:54.383Z,968.96
2019-03-17T20:44:54.380Z,969.00
2019-03-17T20:49:54.408Z,969.01
2019-03-17T20:54:54.391Z,968.88
2019-03-17T20:59:54.404Z,969.00
2019-03-17T21:04:54.485Z,969.09
2019-03-17T21:09:54.360Z,969.14
2019-03-17T21:14:54.370Z,969.41
2019-03-17T21:19:54.437Z,969.36
2019-03-17T21:24:54.370Z,969.44
2019-03-17T21:29:54.385Z,969.65
2019-03-17T21:34:54.431Z,969.68
2019-03-17T21:39:54.356Z,969.73
2019-03-17T21:44:54.417Z,969.66
2019-03-17T21:49:54.405Z,969.72
2019-03-17T21:54:54.450Z,969.84
2019-03-17T21:59:54.388Z,969.88
2019-03-17T22:04:54.411Z,969.97
2019-03-17T22:09:54.364Z,970.02
2019-03-17T22:14:54.372Z,970.12
2019-03-17T22:19:54.402Z,970.26
2019-03-17T22:24:54.368Z,970.38
2019-03-17T22:29:54.389Z,970.54
2019-03-17T22:34:54.455Z,970.61
2019-03-17T22:39:54.370Z,970.70
2019-03-17T22:44:54.396Z,970.76
2019-03-17T22:49:54.414Z,970.91
2019-03-17T22:54:54.370Z,970.98
2019-03-17T22:59:54.486Z,971.06
2019-03-17T23:04:54.423Z,971.24
2019-03-17T23:09:54.360Z,971.30
2019-03-17T23:14:54.390Z,971.51
2019-03-17T23:19:54.487Z,971.81
2019-03-17T23:24:54.372Z,972.02
2019-03-17T23:29:54.411Z,972.33
2019-03-17T23:34:54.397Z,972.50
2019-03-17T23:39:54.358Z,972.70
2019-03-17T23:44:54.377Z,972.72
2019-03-17T23:49:54.423Z,972.97
2019-03-17T23:54:54.363Z,973.04
2019-03-17T23:59:54.397Z,973.13
